sensor_id;sensor_type;location;lat;lon;timestamp;temperature;humidity
67379;DHT22;54262;44.642;-0.974;2024-03-23T00:55:54;15.50;99.90
67379;DHT22;54262;44.642;-0.974;2024-03-23T00:58:19;15.60;99.90
67379;DHT22;54262;44.642;-0.974;2024-03-23T01:00:45;15.50;99.90
67379;DHT22;54262;44.642;-0.974;2024-03-23T01:03:11;15.40;99.90
67379;DHT22;54262;44.642;-0.974;2024-03-23T01:05:36;15.30;99.90
67379;DHT22;54262;44.642;-0.974;2024-03-23T01:08:02;15.20;99.90
67379;DHT22;54262;44.642;-0.974;2024-03-23T01:10:28;15.10;99.90
67379;DHT22;54262;44.642;-0.974;2024-03-23T01:12:53;15.10;99.90
67379;DHT22;54262;44.642;-0.974;2024-03-23T01:15:19;15.10;99.90
67379;DHT22;54262;44.642;-0.974;2024-03-23T01:17:44;15.10;99.90
67379;DHT22;54262;44.642;-0.974;2024-03-23T01:20:10;15.00;99.90
67379;DHT22;54262;44.642;-0.974;2024-03-23T01:22:36;15.00;99.90
67379;DHT22;54262;44.642;-0.974;2024-03-23T01:25:01;15.00;99.90
67379;DHT22;54262;44.642;-0.974;2024-03-23T01:27:27;15.00;99.90
67379;DHT22;54262;44.642;-0.974;2024-03-23T01:29:53;15.00;99.90
67379;DHT22;54262;44.642;-0.974;2024-03-23T01:32:19;15.00;99.90
67379;DHT22;54262;44.642;-0.974;2024-03-23T01:34:44;14.90;99.90
67379;DHT22;54262;44.642;-0.974;2024-03-23T01:37:10;14.80;99.90
67379;DHT22;54262;44.642;-0.974;2024-03-23T01:39:36;14.80;99.90
67379;DHT22;54262;44.642;-0.974;2024-03-23T01:42:01;14.80;99.90
67379;DHT22;54262;44.642;-0.974;2024-03-23T01:44:27;14.70;99.90
67379;DHT22;54262;44.642;-0.974;2024-03-23T01:46:55;14.60;99.90
67379;DHT22;54262;44.642;-0.974;2024-03-23T01:49:21;14.60;99.90
67379;DHT22;54262;44.642;-0.974;2024-03-23T01:51:49;14.60;99.90
67379;DHT22;54262;44.642;-0.974;2024-03-23T01:54:18;14.40;99.90
67379;DHT22;54262;44.642;-0.974;2024-03-23T01:56:44;14.40;99.90
67379;DHT22;54262;44.642;-0.974;2024-03-23T01:59:10;14.30;99.90
67379;DHT22;54262;44.642;-0.974;2024-03-23T02:01:36;14.30;99.90
67379;DHT22;54262;44.642;-0.974;2024-03-23T02:04:02;14.10;99.90
67379;DHT22;54262;44.642;-0.974;2024-03-23T02:06:28;14.10;99.90
67379;DHT22;54262;44.642;-0.974;2024-03-23T02:08:54;14.10;99.90
67379;DHT22;54262;44.642;-0.974;2024-03-23T02:11:20;13.90;99.90
67379;DHT22;54262;44.642;-0.974;2024-03-23T02:13:46;14.00;99.90
67379;DHT22;54262;44.642;-0.974;2024-03-23T02:16:11;14.00;99.90
67379;DHT22;54262;44.642;-0.974;2024-03-23T02:18:39;14.10;99.90
67379;DHT22;54262;44.642;-0.974;2024-03-23T02:21:05;13.90;99.90
67379;DHT22;54262;44.642;-0.974;2024-03-23T02:23:30;13.80;99.90
67379;DHT22;54262;44.642;-0.974;2024-03-23T02:25:56;13.70;99.90
67379;DHT22;54262;44.642;-0.974;2024-03-23T02:28:22;13.70;99.90
67379;DHT22;54262;44.642;-0.974;2024-03-23T02:30:51;13.70;99.90
67379;DHT22;54262;44.642;-0.974;2024-03-23T02:33:16;13.70;99.90
67379;DHT22;54262;44.642;-0.974;2024-03-23T02:35:43;13.60;99.90
67379;DHT22;54262;44.642;-0.974;2024-03-23T02:38:09;13.70;99.90
67379;DHT22;54262;44.642;-0.974;2024-03-23T02:40:35;13.80;99.90
67379;DHT22;54262;44.642;-0.974;2024-03-23T02:43:02;13.70;99.90
67379;DHT22;54262;44.642;-0.974;2024-03-23T02:45:31;13.70;99.90
67379;DHT22;54262;44.642;-0.974;2024-03-23T02:47:59;13.70;99.90
67379;DHT22;54262;44.642;-0.974;2024-03-23T02:50:24;13.70;99.90
67379;DHT22;54262;44.642;-0.974;2024-03-23T02:52:52;13.60;99.90
67379;DHT22;54262;44.642;-0.974;2024-03-23T02:55:18;13.60;99.90
67379;DHT22;54262;44.642;-0.974;2024-03-23T02:57:44;13.60;99.90
67379;DHT22;54262;44.642;-0.974;2024-03-23T03:00:10;13.50;99.90
67379;DHT22;54262;44.642;-0.974;2024-03-23T03:02:36;13.40;99.90
67379;DHT22;54262;44.642;-0.974;2024-03-23T03:05:03;13.30;99.90
67379;DHT22;54262;44.642;-0.974;2024-03-23T03:07:31;13.20;99.90
67379;DHT22;54262;44.642;-0.974;2024-03-23T03:09:56;13.00;99.90
67379;DHT22;54262;44.642;-0.974;2024-03-23T03:12:22;12.90;99.90
67379;DHT22;54262;44.642;-0.974;2024-03-23T03:14:47;12.80;99.90
67379;DHT22;54262;44.642;-0.974;2024-03-23T03:17:16;12.80;99.90
67379;DHT22;54262;44.642;-0.974;2024-03-23T03:19:42;12.80;99.90
67379;DHT22;54262;44.642;-0.974;2024-03-23T03:22:07;12.80;99.90
67379;DHT22;54262;44.642;-0.974;2024-03-23T03:24:33;12.70;99.90
67379;DHT22;54262;44.642;-0.974;2024-03-23T03:26:59;12.70;99.90
67379;DHT22;54262;44.642;-0.974;2024-03-23T03:29:25;12.60;99.90
67379;DHT22;54262;44.642;-0.974;2024-03-23T03:31:51;12.60;99.90
67379;DHT22;54262;44.642;-0.974;2024-03-23T03:34:16;12.50;99.90
67379;DHT22;54262;44.642;-0.974;2024-03-23T03:36:42;12.50;99.90
67379;DHT22;54262;44.642;-0.974;2024-03-23T03:39:07;12.40;99.90
67379;DHT22;54262;44.642;-0.974;2024-03-23T03:41:33;12.40;99.90
67379;DHT22;54262;44.642;-0.974;2024-03-23T03:43:59;12.30;99.90
67379;DHT22;54262;44.642;-0.974;2024-03-23T03:46:30;12.20;99.90
67379;DHT22;54262;44.642;-0.974;2024-03-23T03:48:58;12.10;99.90
67379;DHT22;54262;44.642;-0.974;2024-03-23T03:51:24;12.10;99.90
67379;DHT22;54262;44.642;-0.974;2024-03-23T03:53:52;12.00;99.90
67379;DHT22;54262;44.642;-0.974;2024-03-23T03:56:17;11.90;99.90
67379;DHT22;54262;44.642;-0.974;2024-03-23T03:58:43;11.90;99.90
67379;DHT22;54262;44.642;-0.974;2024-03-23T04:01:09;11.90;99.90
67379;DHT22;54262;44.642;-0.974;2024-03-23T04:03:34;11.80;99.90
67379;DHT22;54262;44.642;-0.974;2024-03-23T04:06:00;11.70;99.90
67379;DHT22;54262;44.642;-0.974;2024-03-23T04:08:25;11.90;99.90
67379;DHT22;54262;44.642;-0.974;2024-03-23T04:10:51;11.90;99.90
67379;DHT22;54262;44.642;-0.974;2024-03-23T04:13:17;11.90;99.90
67379;DHT22;54262;44.642;-0.974;2024-03-23T04:15:42;11.90;99.90
67379;DHT22;54262;44.642;-0.974;2024-03-23T04:18:08;12.00;99.90
67379;DHT22;54262;44.642;-0.974;2024-03-23T04:20:34;11.90;99.90
67379;DHT22;54262;44.642;-0.974;2024-03-23T04:22:59;11.90;99.90
67379;DHT22;54262;44.642;-0.974;2024-03-23T04:25:25;11.90;99.90
67379;DHT22;54262;44.642;-0.974;2024-03-23T04:27:51;11.90;99.90
67379;DHT22;54262;44.642;-0.974;2024-03-23T04:30:17;12.00;99.90
67379;DHT22;54262;44.642;-0.974;2024-03-23T04:32:43;12.00;99.90
67379;DHT22;54262;44.642;-0.974;2024-03-23T04:35:09;12.00;99.90
67379;DHT22;54262;44.642;-0.974;2024-03-23T04:37:38;11.90;99.90
67379;DHT22;54262;44.642;-0.974;2024-03-23T04:40:07;12.00;99.90
67379;DHT22;54262;44.642;-0.974;2024-03-23T04:42:33;11.90;99.90
67379;DHT22;54262;44.642;-0.974;2024-03-23T04:45:01;12.00;99.90
67379;DHT22;54262;44.642;-0.974;2024-03-23T04:47:27;12.00;99.90
67379;DHT22;54262;44.642;-0.974;2024-03-23T04:49:55;12.00;99.90
67379;DHT22;54262;44.642;-0.974;2024-03-23T04:52:21;12.00;99.90
67379;DHT22;54262;44.642;-0.974;2024-03-23T04:54:49;11.90;99.90
67379;DHT22;54262;44.642;-0.974;2024-03-23T04:57:14;11.90;99.90
67379;DHT22;54262;44.642;-0.974;2024-03-23T04:59:42;11.90;99.90
67379;DHT22;54262;44.642;-0.974;2024-03-23T05:02:07;11.90;99.90
67379;DHT22;54262;44.642;-0.974;2024-03-23T05:04:33;11.80;99.90
67379;DHT22;54262;44.642;-0.974;2024-03-23T05:06:58;11.80;99.90
67379;DHT22;54262;44.642;-0.974;2024-03-23T05:09:24;11.80;99.90
67379;DHT22;54262;44.642;-0.974;2024-03-23T05:11:50;11.80;99.90
67379;DHT22;54262;44.642;-0.974;2024-03-23T05:14:16;11.60;99.90
67379;DHT22;54262;44.642;-0.974;2024-03-23T05:16:41;11.50;99.90
67379;DHT22;54262;44.642;-0.974;2024-03-23T05:19:07;11.40;99.90
67379;DHT22;54262;44.642;-0.974;2024-03-23T05:21:33;11.40;99.90
67379;DHT22;54262;44.642;-0.974;2024-03-23T05:23:58;11.40;99.90
67379;DHT22;54262;44.642;-0.974;2024-03-23T05:26:24;11.40;99.90
67379;DHT22;54262;44.642;-0.974;2024-03-23T05:28:49;11.40;99.90
67379;DHT22;54262;44.642;-0.974;2024-03-23T05:31:25;11.30;99.90
67379;DHT22;54262;44.642;-0.974;2024-03-23T05:33:51;11.30;99.90
67379;DHT22;54262;44.642;-0.974;2024-03-23T05:36:17;11.20;99.90
67379;DHT22;54262;44.642;-0.974;2024-03-23T05:38:43;11.10;99.90
67379;DHT22;54262;44.642;-0.974;2024-03-23T05:41:09;11.00;99.90
67379;DHT22;54262;44.642;-0.974;2024-03-23T05:43:34;10.90;99.90
67379;DHT22;54262;44.642;-0.974;2024-03-23T05:46:00;10.80;99.90
67379;DHT22;54262;44.642;-0.974;2024-03-23T05:48:33;10.70;99.90
67379;DHT22;54262;44.642;-0.974;2024-03-23T05:51:01;10.70;99.90
67379;DHT22;54262;44.642;-0.974;2024-03-23T05:53:27;10.50;99.90
67379;DHT22;54262;44.642;-0.974;2024-03-23T05:56:02;10.50;99.90
67379;DHT22;54262;44.642;-0.974;2024-03-23T05:58:32;10.40;99.90
67379;DHT22;54262;44.642;-0.974;2024-03-23T06:00:59;10.40;99.90
67379;DHT22;54262;44.642;-0.974;2024-03-23T06:03:25;10.30;99.90
67379;DHT22;54262;44.642;-0.974;2024-03-23T06:05:51;10.20;99.90
67379;DHT22;54262;44.642;-0.974;2024-03-23T06:08:18;10.00;99.90
67379;DHT22;54262;44.642;-0.974;2024-03-23T06:10:45;10.00;99.90
67379;DHT22;54262;44.642;-0.974;2024-03-23T06:13:11;9.90;99.90
67379;DHT22;54262;44.642;-0.974;2024-03-23T06:15:37;9.80;99.90
67379;DHT22;54262;44.642;-0.974;2024-03-23T06:18:03;9.70;99.90
67379;DHT22;54262;44.642;-0.974;2024-03-23T06:20:30;9.70;99.90
67379;DHT22;54262;44.642;-0.974;2024-03-23T06:22:56;9.70;99.90
67379;DHT22;54262;44.642;-0.974;2024-03-23T06:25:21;9.60;99.90
67379;DHT22;54262;44.642;-0.974;2024-03-23T06:27:47;9.70;99.90
67379;DHT22;54262;44.642;-0.974;2024-03-23T06:30:13;9.60;99.90
67379;DHT22;54262;44.642;-0.974;2024-03-23T06:32:38;9.60;99.90
67379;DHT22;54262;44.642;-0.974;2024-03-23T06:35:04;9.60;99.90
67379;DHT22;54262;44.642;-0.974;2024-03-23T06:37:37;9.50;99.90
67379;DHT22;54262;44.642;-0.974;2024-03-23T06:40:05;9.50;99.90
67379;DHT22;54262;44.642;-0.974;2024-03-23T06:42:33;9.50;99.90
67379;DHT22;54262;44.642;-0.974;2024-03-23T06:44:59;9.50;99.90
67379;DHT22;54262;44.642;-0.974;2024-03-23T06:47:25;9.60;99.90
67379;DHT22;54262;44.642;-0.974;2024-03-23T06:49:51;9.70;99.90
67379;DHT22;54262;44.642;-0.974;2024-03-23T06:52:19;9.70;99.90
67379;DHT22;54262;44.642;-0.974;2024-03-23T06:54:44;9.70;99.90
67379;DHT22;54262;44.642;-0.974;2024-03-23T06:57:12;9.80;99.90
67379;DHT22;54262;44.642;-0.974;2024-03-23T06:59:38;9.80;99.90
67379;DHT22;54262;44.642;-0.974;2024-03-23T07:02:09;9.80;99.90
67379;DHT22;54262;44.642;-0.974;2024-03-23T07:04:35;9.90;99.90
67379;DHT22;54262;44.642;-0.974;2024-03-23T07:07:01;10.00;99.90
67379;DHT22;54262;44.642;-0.974;2024-03-23T07:09:29;10.00;99.90
67379;DHT22;54262;44.642;-0.974;2024-03-23T07:11:56;10.00;99.90
67379;DHT22;54262;44.642;-0.974;2024-03-23T07:14:22;10.20;99.90
67379;DHT22;54262;44.642;-0.974;2024-03-23T07:16:49;10.30;99.90
67379;DHT22;54262;44.642;-0.974;2024-03-23T07:19:16;10.30;99.90
67379;DHT22;54262;44.642;-0.974;2024-03-23T07:21:45;10.40;99.90
67379;DHT22;54262;44.642;-0.974;2024-03-23T07:24:11;10.40;99.90
67379;DHT22;54262;44.642;-0.974;2024-03-23T07:26:37;10.40;99.90
67379;DHT22;54262;44.642;-0.974;2024-03-23T07:29:04;10.50;99.90
67379;DHT22;54262;44.642;-0.974;2024-03-23T07:31:33;10.50;99.90
67379;DHT22;54262;44.642;-0.974;2024-03-23T07:33:58;10.50;99.90
67379;DHT22;54262;44.642;-0.974;2024-03-23T07:36:24;10.70;99.90
67379;DHT22;54262;44.642;-0.974;2024-03-23T07:38:50;10.70;99.90
67379;DHT22;54262;44.642;-0.974;2024-03-23T07:41:18;10.70;99.90
67379;DHT22;54262;44.642;-0.974;2024-03-23T07:43:44;10.80;99.90
67379;DHT22;54262;44.642;-0.974;2024-03-23T07:46:10;10.80;99.90
67379;DHT22;54262;44.642;-0.974;2024-03-23T07:48:37;10.80;99.90
67379;DHT22;54262;44.642;-0.974;2024-03-23T07:51:08;10.80;99.90
67379;DHT22;54262;44.642;-0.974;2024-03-23T07:53:37;10.80;99.90
67379;DHT22;54262;44.642;-0.974;2024-03-23T07:56:08;10.80;99.90
67379;DHT22;54262;44.642;-0.974;2024-03-23T07:58:36;10.80;99.90
67379;DHT22;54262;44.642;-0.974;2024-03-23T08:01:12;10.80;99.90
67379;DHT22;54262;44.642;-0.974;2024-03-23T08:03:40;11.00;99.90
67379;DHT22;54262;44.642;-0.974;2024-03-23T08:08:36;11.10;99.90
67379;DHT22;54262;44.642;-0.974;2024-03-23T08:11:01;11.20;99.90
67379;DHT22;54262;44.642;-0.974;2024-03-23T08:13:27;11.20;99.90
67379;DHT22;54262;44.642;-0.974;2024-03-23T08:15:59;11.20;99.90
67379;DHT22;54262;44.642;-0.974;2024-03-23T08:18:25;11.20;99.90
67379;DHT22;54262;44.642;-0.974;2024-03-23T08:20:57;11.30;99.90
67379;DHT22;54262;44.642;-0.974;2024-03-23T08:23:28;11.40;99.90
67379;DHT22;54262;44.642;-0.974;2024-03-23T08:26:00;11.70;99.90
67379;DHT22;54262;44.642;-0.974;2024-03-23T08:28:27;11.90;99.90
67379;DHT22;54262;44.642;-0.974;2024-03-23T08:30:54;12.00;99.90
67379;DHT22;54262;44.642;-0.974;2024-03-23T08:33:20;12.10;99.90
67379;DHT22;54262;44.642;-0.974;2024-03-23T08:35:59;12.20;99.90
67379;DHT22;54262;44.642;-0.974;2024-03-23T08:38:25;12.40;99.90
67379;DHT22;54262;44.642;-0.974;2024-03-23T08:41:11;12.50;99.90
67379;DHT22;54262;44.642;-0.974;2024-03-23T08:43:39;12.70;99.90
67379;DHT22;54262;44.642;-0.974;2024-03-23T08:46:08;12.80;99.90
67379;DHT22;54262;44.642;-0.974;2024-03-23T08:48:47;12.90;99.90
67379;DHT22;54262;44.642;-0.974;2024-03-23T08:51:15;13.10;99.90
67379;DHT22;54262;44.642;-0.974;2024-03-23T08:53:43;13.10;99.90
67379;DHT22;54262;44.642;-0.974;2024-03-23T08:56:10;13.30;99.90
67379;DHT22;54262;44.642;-0.974;2024-03-23T08:58:38;13.50;99.90
67379;DHT22;54262;44.642;-0.974;2024-03-23T09:01:09;13.70;99.90
67379;DHT22;54262;44.642;-0.974;2024-03-23T09:03:36;13.90;99.90
67379;DHT22;54262;44.642;-0.974;2024-03-23T09:06:06;13.90;99.90
67379;DHT22;54262;44.642;-0.974;2024-03-23T09:08:32;13.90;99.90
67379;DHT22;54262;44.642;-0.974;2024-03-23T09:11:00;14.00;99.90
67379;DHT22;54262;44.642;-0.974;2024-03-23T09:13:28;14.10;99.90
67379;DHT22;54262;44.642;-0.974;2024-03-23T09:15:54;14.20;99.90
67379;DHT22;54262;44.642;-0.974;2024-03-23T09:18:21;14.30;99.90
67379;DHT22;54262;44.642;-0.974;2024-03-23T09:20:47;14.40;99.90
67379;DHT22;54262;44.642;-0.974;2024-03-23T09:23:13;14.50;99.90
67379;DHT22;54262;44.642;-0.974;2024-03-23T09:25:39;14.60;99.90
67379;DHT22;54262;44.642;-0.974;2024-03-23T09:28:06;14.70;99.90
67379;DHT22;54262;44.642;-0.974;2024-03-23T09:30:33;14.80;99.90
67379;DHT22;54262;44.642;-0.974;2024-03-23T09:33:07;15.00;99.90
67379;DHT22;54262;44.642;-0.974;2024-03-23T09:35:37;15.10;99.90
67379;DHT22;54262;44.642;-0.974;2024-03-23T09:38:02;15.20;99.90
67379;DHT22;54262;44.642;-0.974;2024-03-23T09:40:28;15.10;99.90
67379;DHT22;54262;44.642;-0.974;2024-03-23T09:42:54;15.10;99.90
67379;DHT22;54262;44.642;-0.974;2024-03-23T09:45:23;15.10;99.90
67379;DHT22;54262;44.642;-0.974;2024-03-23T09:47:52;15.10;99.90
67379;DHT22;54262;44.642;-0.974;2024-03-23T09:50:18;15.20;99.90
67379;DHT22;54262;44.642;-0.974;2024-03-23T09:52:46;15.20;99.90
67379;DHT22;54262;44.642;-0.974;2024-03-23T09:55:14;15.30;99.90
67379;DHT22;54262;44.642;-0.974;2024-03-23T09:57:41;15.30;99.90
67379;DHT22;54262;44.642;-0.974;2024-03-23T10:00:09;15.50;99.90
67379;DHT22;54262;44.642;-0.974;2024-03-23T10:02:37;15.60;99.90
67379;DHT22;54262;44.642;-0.974;2024-03-23T10:05:03;15.60;99.90
67379;DHT22;54262;44.642;-0.974;2024-03-23T10:07:29;15.60;99.90
67379;DHT22;54262;44.642;-0.974;2024-03-23T10:09:55;15.60;99.90
67379;DHT22;54262;44.642;-0.974;2024-03-23T10:12:22;15.50;99.90
67379;DHT22;54262;44.642;-0.974;2024-03-23T10:14:48;15.60;99.90
67379;DHT22;54262;44.642;-0.974;2024-03-23T10:17:20;15.70;99.90
67379;DHT22;54262;44.642;-0.974;2024-03-23T10:19:46;15.90;99.90
67379;DHT22;54262;44.642;-0.974;2024-03-23T10:22:20;15.90;99.90
67379;DHT22;54262;44.642;-0.974;2024-03-23T10:24:46;15.90;99.90
67379;DHT22;54262;44.642;-0.974;2024-03-23T10:27:19;15.90;99.90
67379;DHT22;54262;44.642;-0.974;2024-03-23T10:29:46;16.10;99.90
67379;DHT22;54262;44.642;-0.974;2024-03-23T10:32:13;16.20;99.90
67379;DHT22;54262;44.642;-0.974;2024-03-23T10:34:39;16.20;99.90
67379;DHT22;54262;44.642;-0.974;2024-03-23T10:37:06;16.00;99.90
67379;DHT22;54262;44.642;-0.974;2024-03-23T10:39:36;16.00;99.90
67379;DHT22;54262;44.642;-0.974;2024-03-23T10:42:04;16.00;99.90
67379;DHT22;54262;44.642;-0.974;2024-03-23T10:44:30;16.00;99.90
67379;DHT22;54262;44.642;-0.974;2024-03-23T10:47:03;15.90;99.90
67379;DHT22;54262;44.642;-0.974;2024-03-23T10:49:30;16.00;99.90
67379;DHT22;54262;44.642;-0.974;2024-03-23T10:51:59;15.90;99.90
67379;DHT22;54262;44.642;-0.974;2024-03-23T10:54:26;15.90;99.90
67379;DHT22;54262;44.642;-0.974;2024-03-23T10:59:40;16.00;99.90
67379;DHT22;54262;44.642;-0.974;2024-03-23T11:02:19;16.30;99.90
67379;DHT22;54262;44.642;-0.974;2024-03-23T11:04:45;16.30;99.90
67379;DHT22;54262;44.642;-0.974;2024-03-23T11:07:33;16.30;99.90
67379;DHT22;54262;44.642;-0.974;2024-03-23T11:09:59;16.10;99.90
67379;DHT22;54262;44.642;-0.974;2024-03-23T11:12:29;16.40;99.90
67379;DHT22;54262;44.642;-0.974;2024-03-23T11:15:06;16.30;99.90
67379;DHT22;54262;44.642;-0.974;2024-03-23T11:17:36;16.40;99.90
67379;DHT22;54262;44.642;-0.974;2024-03-23T11:20:03;16.40;99.90
67379;DHT22;54262;44.642;-0.974;2024-03-23T11:22:39;16.40;99.90
67379;DHT22;54262;44.642;-0.974;2024-03-23T11:27:45;16.60;99.90
67379;DHT22;54262;44.642;-0.974;2024-03-23T11:30:17;16.60;99.90
67379;DHT22;54262;44.642;-0.974;2024-03-23T11:32:47;16.30;99.90
67379;DHT22;54262;44.642;-0.974;2024-03-23T11:35:34;16.30;99.90
67379;DHT22;54262;44.642;-0.974;2024-03-23T11:38:17;16.50;99.90
67379;DHT22;54262;44.642;-0.974;2024-03-23T11:40:47;16.20;97.40
67379;DHT22;54262;44.642;-0.974;2024-03-23T11:43:13;16.10;99.90
67379;DHT22;54262;44.642;-0.974;2024-03-23T11:45:43;16.40;99.90
67379;DHT22;54262;44.642;-0.974;2024-03-23T11:48:17;16.40;99.90
67379;DHT22;54262;44.642;-0.974;2024-03-23T11:50:46;16.30;99.90
67379;DHT22;54262;44.642;-0.974;2024-03-23T11:53:21;16.60;99.90
67379;DHT22;54262;44.642;-0.974;2024-03-23T11:55:52;16.50;99.90
67379;DHT22;54262;44.642;-0.974;2024-03-23T11:58:29;16.30;99.90
67379;DHT22;54262;44.642;-0.974;2024-03-23T12:01:02;16.40;99.90
67379;DHT22;54262;44.642;-0.974;2024-03-23T12:03:31;16.30;99.90
67379;DHT22;54262;44.642;-0.974;2024-03-23T12:06:00;16.50;99.90
67379;DHT22;54262;44.642;-0.974;2024-03-23T12:08:34;16.70;99.90
67379;DHT22;54262;44.642;-0.974;2024-03-23T12:11:13;16.80;99.90
67379;DHT22;54262;44.642;-0.974;2024-03-23T12:13:40;16.70;99.90
67379;DHT22;54262;44.642;-0.974;2024-03-23T12:16:14;16.90;99.90
67379;DHT22;54262;44.642;-0.974;2024-03-23T12:18:44;17.00;99.10
67379;DHT22;54262;44.642;-0.974;2024-03-23T12:21:10;16.80;99.90
67379;DHT22;54262;44.642;-0.974;2024-03-23T12:23:38;17.20;97.60
67379;DHT22;54262;44.642;-0.974;2024-03-23T12:26:04;17.30;96.50
67379;DHT22;54262;44.642;-0.974;2024-03-23T12:28:29;17.30;96.30
67379;DHT22;54262;44.642;-0.974;2024-03-23T12:30:55;17.30;97.00
67379;DHT22;54262;44.642;-0.974;2024-03-23T12:33:21;17.50;90.20
67379;DHT22;54262;44.642;-0.974;2024-03-23T12:35:48;17.20;97.00
67379;DHT22;54262;44.642;-0.974;2024-03-23T12:38:14;17.00;95.80
67379;DHT22;54262;44.642;-0.974;2024-03-23T12:40:39;16.80;75.70
67379;DHT22;54262;44.642;-0.974;2024-03-23T12:43:06;16.60;81.30
67379;DHT22;54262;44.642;-0.974;2024-03-23T12:45:32;17.00;99.20
67379;DHT22;54262;44.642;-0.974;2024-03-23T12:47:57;17.30;95.10
67379;DHT22;54262;44.642;-0.974;2024-03-23T12:50:23;17.20;95.50
67379;DHT22;54262;44.642;-0.974;2024-03-23T12:52:49;16.90;77.30
67379;DHT22;54262;44.642;-0.974;2024-03-23T12:55:15;17.00;93.60
67379;DHT22;54262;44.642;-0.974;2024-03-23T12:57:43;17.00;99.20
67379;DHT22;54262;44.642;-0.974;2024-03-23T13:00:11;17.30;96.60
67379;DHT22;54262;44.642;-0.974;2024-03-23T13:02:38;17.40;96.80
67379;DHT22;54262;44.642;-0.974;2024-03-23T13:05:07;17.20;96.90
67379;DHT22;54262;44.642;-0.974;2024-03-23T13:07:34;17.30;97.40
67379;DHT22;54262;44.642;-0.974;2024-03-23T13:10:00;17.60;95.30
67379;DHT22;54262;44.642;-0.974;2024-03-23T13:12:26;17.50;94.50
67379;DHT22;54262;44.642;-0.974;2024-03-23T13:14:52;17.70;94.60
67379;DHT22;54262;44.642;-0.974;2024-03-23T13:17:17;17.70;92.60
67379;DHT22;54262;44.642;-0.974;2024-03-23T13:19:43;17.70;73.20
67379;DHT22;54262;44.642;-0.974;2024-03-23T13:22:09;17.80;92.30
67379;DHT22;54262;44.642;-0.974;2024-03-23T13:24:37;18.00;91.50
67379;DHT22;54262;44.642;-0.974;2024-03-23T13:27:03;17.70;89.50
67379;DHT22;54262;44.642;-0.974;2024-03-23T13:29:30;17.60;88.70
67379;DHT22;54262;44.642;-0.974;2024-03-23T13:31:55;17.70;92.10
67379;DHT22;54262;44.642;-0.974;2024-03-23T13:34:21;17.90;90.70
67379;DHT22;54262;44.642;-0.974;2024-03-23T13:36:47;17.80;90.80
67379;DHT22;54262;44.642;-0.974;2024-03-23T13:39:13;17.90;85.40
67379;DHT22;54262;44.642;-0.974;2024-03-23T13:41:42;17.70;87.30
67379;DHT22;54262;44.642;-0.974;2024-03-23T13:44:09;17.70;91.30
67379;DHT22;54262;44.642;-0.974;2024-03-23T13:46:41;17.90;91.40
67379;DHT22;54262;44.642;-0.974;2024-03-23T13:49:25;17.70;92.00
67379;DHT22;54262;44.642;-0.974;2024-03-23T13:51:52;18.00;90.20
67379;DHT22;54262;44.642;-0.974;2024-03-23T13:54:18;18.10;86.80
67379;DHT22;54262;44.642;-0.974;2024-03-23T13:56:43;17.90;71.60
67379;DHT22;54262;44.642;-0.974;2024-03-23T13:59:10;17.80;87.70
67379;DHT22;54262;44.642;-0.974;2024-03-23T14:01:38;17.70;90.40
67379;DHT22;54262;44.642;-0.974;2024-03-23T14:04:03;18.10;86.50
67379;DHT22;54262;44.642;-0.974;2024-03-23T14:06:31;18.20;84.50
67379;DHT22;54262;44.642;-0.974;2024-03-23T14:08:57;18.20;71.50
67379;DHT22;54262;44.642;-0.974;2024-03-23T14:11:22;18.20;84.60
67379;DHT22;54262;44.642;-0.974;2024-03-23T14:13:48;18.30;82.20
67379;DHT22;54262;44.642;-0.974;2024-03-23T14:16:14;18.00;66.20
67379;DHT22;54262;44.642;-0.974;2024-03-23T14:18:39;17.80;82.10
67379;DHT22;54262;44.642;-0.974;2024-03-23T14:21:05;17.90;82.80
67379;DHT22;54262;44.642;-0.974;2024-03-23T14:23:34;17.70;80.70
67379;DHT22;54262;44.642;-0.974;2024-03-23T14:25:59;18.00;87.10
67379;DHT22;54262;44.642;-0.974;2024-03-23T14:28:25;18.20;81.00
67379;DHT22;54262;44.642;-0.974;2024-03-23T14:30:52;18.00;84.60
67379;DHT22;54262;44.642;-0.974;2024-03-23T14:33:20;18.20;80.10
67379;DHT22;54262;44.642;-0.974;2024-03-23T14:35:56;18.30;81.40
67379;DHT22;54262;44.642;-0.974;2024-03-23T14:38:23;18.40;77.70
67379;DHT22;54262;44.642;-0.974;2024-03-23T14:40:48;18.10;79.70
67379;DHT22;54262;44.642;-0.974;2024-03-23T14:43:17;18.30;81.00
67379;DHT22;54262;44.642;-0.974;2024-03-23T14:46:06;18.50;78.40
67379;DHT22;54262;44.642;-0.974;2024-03-23T14:48:33;18.50;76.20
67379;DHT22;54262;44.642;-0.974;2024-03-23T14:50:59;18.40;76.30
67379;DHT22;54262;44.642;-0.974;2024-03-23T14:53:28;18.30;76.60
67379;DHT22;54262;44.642;-0.974;2024-03-23T14:55:55;18.40;78.70
67379;DHT22;54262;44.642;-0.974;2024-03-23T14:58:21;18.40;78.60
67379;DHT22;54262;44.642;-0.974;2024-03-23T15:00:48;18.40;80.20
67379;DHT22;54262;44.642;-0.974;2024-03-23T15:03:16;18.20;77.10
67379;DHT22;54262;44.642;-0.974;2024-03-23T15:05:42;18.00;82.40
67379;DHT22;54262;44.642;-0.974;2024-03-23T15:08:10;18.00;72.50
67379;DHT22;54262;44.642;-0.974;2024-03-23T15:10:36;18.20;83.00
67379;DHT22;54262;44.642;-0.974;2024-03-23T15:13:02;18.30;81.60
67379;DHT22;54262;44.642;-0.974;2024-03-23T15:15:28;18.50;78.50
67379;DHT22;54262;44.642;-0.974;2024-03-23T15:17:54;18.20;76.60
67379;DHT22;54262;44.642;-0.974;2024-03-23T15:20:19;18.30;81.10
67379;DHT22;54262;44.642;-0.974;2024-03-23T15:22:45;18.10;75.70
67379;DHT22;54262;44.642;-0.974;2024-03-23T15:25:10;18.10;83.20
67379;DHT22;54262;44.642;-0.974;2024-03-23T15:27:36;18.20;81.50
67379;DHT22;54262;44.642;-0.974;2024-03-23T15:30:01;18.10;82.20
67379;DHT22;54262;44.642;-0.974;2024-03-23T15:32:27;18.10;83.60
67379;DHT22;54262;44.642;-0.974;2024-03-23T15:34:53;18.00;85.80
67379;DHT22;54262;44.642;-0.974;2024-03-23T15:37:18;18.20;81.30
67379;DHT22;54262;44.642;-0.974;2024-03-23T15:39:44;18.00;81.80
67379;DHT22;54262;44.642;-0.974;2024-03-23T15:42:09;18.10;81.70
67379;DHT22;54262;44.642;-0.974;2024-03-23T15:44:35;18.30;82.50
67379;DHT22;54262;44.642;-0.974;2024-03-23T15:47:01;18.40;81.40
67379;DHT22;54262;44.642;-0.974;2024-03-23T15:49:27;18.50;79.90
67379;DHT22;54262;44.642;-0.974;2024-03-23T15:51:53;18.50;78.60
67379;DHT22;54262;44.642;-0.974;2024-03-23T15:54:19;18.50;78.50
67379;DHT22;54262;44.642;-0.974;2024-03-23T15:56:44;18.30;75.50
67379;DHT22;54262;44.642;-0.974;2024-03-23T15:59:13;17.90;79.40
67379;DHT22;54262;44.642;-0.974;2024-03-23T16:01:38;18.10;83.90
67379;DHT22;54262;44.642;-0.974;2024-03-23T16:04:06;18.40;82.80
67379;DHT22;54262;44.642;-0.974;2024-03-23T16:06:32;18.10;68.70
67379;DHT22;54262;44.642;-0.974;2024-03-23T16:08:59;18.00;85.50
67379;DHT22;54262;44.642;-0.974;2024-03-23T16:11:25;17.90;83.90
67379;DHT22;54262;44.642;-0.974;2024-03-23T16:13:51;17.80;75.10
67379;DHT22;54262;44.642;-0.974;2024-03-23T16:16:16;17.90;90.70
67379;DHT22;54262;44.642;-0.974;2024-03-23T16:18:42;17.90;89.90
67379;DHT22;54262;44.642;-0.974;2024-03-23T16:21:09;18.20;88.20